sensor_id;sensor_type;location;lat;lon;timestamp;temperature;humidity
7411;DHT22;3747;48.628;9.058;2023-04-03T00:00:06;2.20;99.90
7411;DHT22;3747;48.628;9.058;2023-04-03T00:02:34;2.20;99.90
7411;DHT22;3747;48.628;9.058;2023-04-03T00:05:00;2.10;99.90
7411;DHT22;3747;48.628;9.058;2023-04-03T00:07:27;2.10;99.90
7411;DHT22;3747;48.628;9.058;2023-04-03T00:09:54;2.10;99.90
7411;DHT22;3747;48.628;9.058;2023-04-03T00:12:21;2.10;99.90
7411;DHT22;3747;48.628;9.058;2023-04-03T00:14:47;2.10;99.90
7411;DHT22;3747;48.628;9.058;2023-04-03T00:17:15;2.00;99.90
7411;DHT22;3747;48.628;9.058;2023-04-03T00:19:42;2.10;99.90
7411;DHT22;3747;48.628;9.058;2023-04-03T00:22:08;2.10;99.90
7411;DHT22;3747;48.628;9.058;2023-04-03T00:24:35;2.10;99.90
7411;DHT22;3747;48.628;9.058;2023-04-03T00:27:02;2.10;99.90
7411;DHT22;3747;48.628;9.058;2023-04-03T00:29:28;2.00;99.90
7411;DHT22;3747;48.628;9.058;2023-04-03T00:31:55;2.00;99.90
7411;DHT22;3747;48.628;9.058;2023-04-03T00:34:23;2.00;99.90
7411;DHT22;3747;48.628;9.058;2023-04-03T00:36:50;2.00;99.90
7411;DHT22;3747;48.628;9.058;2023-04-03T00:39:17;1.90;99.90
7411;DHT22;3747;48.628;9.058;2023-04-03T00:41:43;1.90;99.90
7411;DHT22;3747;48.628;9.058;2023-04-03T00:44:21;1.90;99.90
7411;DHT22;3747;48.628;9.058;2023-04-03T00:46:48;1.80;99.90
7411;DHT22;3747;48.628;9.058;2023-04-03T00:49:15;1.80;99.90
7411;DHT22;3747;48.628;9.058;2023-04-03T00:51:43;1.80;99.90
7411;DHT22;3747;48.628;9.058;2023-04-03T00:54:10;1.80;99.90
7411;DHT22;3747;48.628;9.058;2023-04-03T00:56:37;1.80;99.90
7411;DHT22;3747;48.628;9.058;2023-04-03T00:59:07;1.80;99.90
7411;DHT22;3747;48.628;9.058;2023-04-03T01:01:34;1.80;99.90
7411;DHT22;3747;48.628;9.058;2023-04-03T01:04:02;1.70;99.90
7411;DHT22;3747;48.628;9.058;2023-04-03T01:06:31;1.70;99.90
7411;DHT22;3747;48.628;9.058;2023-04-03T01:09:00;1.70;99.90
7411;DHT22;3747;48.628;9.058;2023-04-03T01:11:27;1.70;99.90
7411;DHT22;3747;48.628;9.058;2023-04-03T01:13:55;1.70;99.90
7411;DHT22;3747;48.628;9.058;2023-04-03T01:16:21;1.70;99.90
7411;DHT22;3747;48.628;9.058;2023-04-03T01:18:48;1.70;99.90
7411;DHT22;3747;48.628;9.058;2023-04-03T01:21:42;1.70;99.90
7411;DHT22;3747;48.628;9.058;2023-04-03T01:24:30;1.60;99.90
7411;DHT22;3747;48.628;9.058;2023-04-03T01:26:58;1.60;99.90
7411;DHT22;3747;48.628;9.058;2023-04-03T01:29:25;1.60;99.90
7411;DHT22;3747;48.628;9.058;2023-04-03T01:31:55;1.60;99.90
7411;DHT22;3747;48.628;9.058;2023-04-03T01:34:22;1.60;99.90
7411;DHT22;3747;48.628;9.058;2023-04-03T01:36:49;1.60;99.90
7411;DHT22;3747;48.628;9.058;2023-04-03T01:39:17;1.60;99.90
7411;DHT22;3747;48.628;9.058;2023-04-03T01:41:45;1.60;99.90
7411;DHT22;3747;48.628;9.058;2023-04-03T01:44:12;1.50;99.90
7411;DHT22;3747;48.628;9.058;2023-04-03T01:46:38;1.50;99.90
7411;DHT22;3747;48.628;9.058;2023-04-03T01:49:08;1.50;99.90
7411;DHT22;3747;48.628;9.058;2023-04-03T01:51:34;1.50;99.90
7411;DHT22;3747;48.628;9.058;2023-04-03T01:54:01;1.50;99.90
7411;DHT22;3747;48.628;9.058;2023-04-03T01:56:28;1.40;99.90
7411;DHT22;3747;48.628;9.058;2023-04-03T01:58:54;1.40;99.90
7411;DHT22;3747;48.628;9.058;2023-04-03T02:01:21;1.30;99.90
7411;DHT22;3747;48.628;9.058;2023-04-03T02:03:48;1.30;99.90
7411;DHT22;3747;48.628;9.058;2023-04-03T02:06:17;1.30;99.90
7411;DHT22;3747;48.628;9.058;2023-04-03T02:08:43;1.30;99.90
7411;DHT22;3747;48.628;9.058;2023-04-03T02:11:10;1.30;99.90
7411;DHT22;3747;48.628;9.058;2023-04-03T02:13:37;1.20;99.90
7411;DHT22;3747;48.628;9.058;2023-04-03T02:16:07;1.20;99.90
7411;DHT22;3747;48.628;9.058;2023-04-03T02:18:35;1.20;99.90
7411;DHT22;3747;48.628;9.058;2023-04-03T02:21:02;1.20;99.90
7411;DHT22;3747;48.628;9.058;2023-04-03T02:23:30;1.20;99.90
7411;DHT22;3747;48.628;9.058;2023-04-03T02:26:03;1.20;99.90
7411;DHT22;3747;48.628;9.058;2023-04-03T02:28:31;1.20;99.90
7411;DHT22;3747;48.628;9.058;2023-04-03T02:30:57;1.10;99.90
7411;DHT22;3747;48.628;9.058;2023-04-03T02:33:24;1.10;99.90
7411;DHT22;3747;48.628;9.058;2023-04-03T02:35:53;1.20;99.90
7411;DHT22;3747;48.628;9.058;2023-04-03T02:38:19;1.20;99.90
7411;DHT22;3747;48.628;9.058;2023-04-03T02:40:47;1.20;99.90
7411;DHT22;3747;48.628;9.058;2023-04-03T02:43:14;1.20;99.90
7411;DHT22;3747;48.628;9.058;2023-04-03T02:45:41;1.20;99.90
7411;DHT22;3747;48.628;9.058;2023-04-03T02:48:07;1.20;99.90
7411;DHT22;3747;48.628;9.058;2023-04-03T02:50:34;1.20;99.90
7411;DHT22;3747;48.628;9.058;2023-04-03T02:53:01;1.20;99.90
7411;DHT22;3747;48.628;9.058;2023-04-03T02:55:28;1.20;99.90
7411;DHT22;3747;48.628;9.058;2023-04-03T02:57:56;1.20;99.90
7411;DHT22;3747;48.628;9.058;2023-04-03T03:00:22;1.30;99.90
7411;DHT22;3747;48.628;9.058;2023-04-03T03:02:49;1.30;99.90
7411;DHT22;3747;48.628;9.058;2023-04-03T03:05:16;1.30;99.90
7411;DHT22;3747;48.628;9.058;2023-04-03T03:07:43;1.30;99.90
7411;DHT22;3747;48.628;9.058;2023-04-03T03:10:10;1.30;99.90
7411;DHT22;3747;48.628;9.058;2023-04-03T03:12:36;1.30;99.90
7411;DHT22;3747;48.628;9.058;2023-04-03T03:15:06;1.30;99.90
7411;DHT22;3747;48.628;9.058;2023-04-03T03:17:33;1.30;99.90
7411;DHT22;3747;48.628;9.058;2023-04-03T03:19:59;1.30;99.90
7411;DHT22;3747;48.628;9.058;2023-04-03T03:22:27;1.40;99.90
7411;DHT22;3747;48.628;9.058;2023-04-03T03:24:54;1.40;99.90
7411;DHT22;3747;48.628;9.058;2023-04-03T03:27:21;1.40;99.90
7411;DHT22;3747;48.628;9.058;2023-04-03T03:29:47;1.40;99.90
7411;DHT22;3747;48.628;9.058;2023-04-03T03:32:16;1.40;99.90
7411;DHT22;3747;48.628;9.058;2023-04-03T03:34:42;1.40;99.90
7411;DHT22;3747;48.628;9.058;2023-04-03T03:37:09;1.40;99.90
7411;DHT22;3747;48.628;9.058;2023-04-03T03:39:35;1.40;99.90
7411;DHT22;3747;48.628;9.058;2023-04-03T03:42:02;1.40;99.90
7411;DHT22;3747;48.628;9.058;2023-04-03T03:44:29;1.40;99.90
7411;DHT22;3747;48.628;9.058;2023-04-03T03:46:56;1.40;99.90
7411;DHT22;3747;48.628;9.058;2023-04-03T03:49:24;1.50;99.90
7411;DHT22;3747;48.628;9.058;2023-04-03T03:51:50;1.50;99.90
7411;DHT22;3747;48.628;9.058;2023-04-03T03:54:17;1.50;99.90
7411;DHT22;3747;48.628;9.058;2023-04-03T03:56:44;1.50;99.90
7411;DHT22;3747;48.628;9.058;2023-04-03T03:59:11;1.50;99.90
7411;DHT22;3747;48.628;9.058;2023-04-03T04:01:38;1.50;99.90
7411;DHT22;3747;48.628;9.058;2023-04-03T04:04:05;1.50;99.90
7411;DHT22;3747;48.628;9.058;2023-04-03T04:06:33;1.50;99.90
7411;DHT22;3747;48.628;9.058;2023-04-03T04:08:59;1.50;99.90
7411;DHT22;3747;48.628;9.058;2023-04-03T04:11:26;1.50;99.90
7411;DHT22;3747;48.628;9.058;2023-04-03T04:13:53;1.40;99.90
7411;DHT22;3747;48.628;9.058;2023-04-03T04:16:20;1.50;99.90
7411;DHT22;3747;48.628;9.058;2023-04-03T04:18:46;1.40;99.90
7411;DHT22;3747;48.628;9.058;2023-04-03T04:21:13;1.40;99.90
7411;DHT22;3747;48.628;9.058;2023-04-03T04:23:41;1.50;99.90
7411;DHT22;3747;48.628;9.058;2023-04-03T04:26:08;1.50;99.90
7411;DHT22;3747;48.628;9.058;2023-04-03T04:28:35;1.50;99.90
7411;DHT22;3747;48.628;9.058;2023-04-03T04:31:02;1.50;99.90
7411;DHT22;3747;48.628;9.058;2023-04-03T04:33:29;1.40;99.90
7411;DHT22;3747;48.628;9.058;2023-04-03T04:35:56;1.40;99.90
7411;DHT22;3747;48.628;9.058;2023-04-03T04:38:22;1.40;99.90
7411;DHT22;3747;48.628;9.058;2023-04-03T04:40:50;1.40;99.90
7411;DHT22;3747;48.628;9.058;2023-04-03T04:43:17;1.40;99.90
7411;DHT22;3747;48.628;9.058;2023-04-03T04:45:44;1.40;99.90
7411;DHT22;3747;48.628;9.058;2023-04-03T04:48:10;1.40;99.90
7411;DHT22;3747;48.628;9.058;2023-04-03T04:50:37;1.40;99.90
7411;DHT22;3747;48.628;9.058;2023-04-03T04:53:04;1.50;99.90
7411;DHT22;3747;48.628;9.058;2023-04-03T04:55:31;1.50;99.90
7411;DHT22;3747;48.628;9.058;2023-04-03T04:57:59;1.50;99.90
7411;DHT22;3747;48.628;9.058;2023-04-03T05:00:25;1.50;99.90
7411;DHT22;3747;48.628;9.058;2023-04-03T05:02:52;1.50;99.90
7411;DHT22;3747;48.628;9.058;2023-04-03T05:05:19;1.50;99.90
7411;DHT22;3747;48.628;9.058;2023-04-03T05:07:45;1.60;99.90
7411;DHT22;3747;48.628;9.058;2023-04-03T05:10:12;1.50;99.90
7411;DHT22;3747;48.628;9.058;2023-04-03T05:12:39;1.50;99.90
7411;DHT22;3747;48.628;9.058;2023-04-03T05:15:08;1.60;99.90
7411;DHT22;3747;48.628;9.058;2023-04-03T05:17:35;1.60;99.90
7411;DHT22;3747;48.628;9.058;2023-04-03T05:20:02;1.60;99.90
7411;DHT22;3747;48.628;9.058;2023-04-03T05:22:30;1.60;99.90
7411;DHT22;3747;48.628;9.058;2023-04-03T05:24:56;1.60;99.90
7411;DHT22;3747;48.628;9.058;2023-04-03T05:27:23;1.70;99.90
7411;DHT22;3747;48.628;9.058;2023-04-03T05:29:52;1.70;99.90
7411;DHT22;3747;48.628;9.058;2023-04-03T05:32:20;1.70;99.90
7411;DHT22;3747;48.628;9.058;2023-04-03T05:34:46;1.80;99.90
7411;DHT22;3747;48.628;9.058;2023-04-03T05:37:13;1.90;99.90
7411;DHT22;3747;48.628;9.058;2023-04-03T05:39:40;1.90;99.90
7411;DHT22;3747;48.628;9.058;2023-04-03T05:42:07;2.00;99.90
7411;DHT22;3747;48.628;9.058;2023-04-03T05:44:34;2.00;99.90
7411;DHT22;3747;48.628;9.058;2023-04-03T05:47:01;2.10;99.90
7411;DHT22;3747;48.628;9.058;2023-04-03T05:49:30;2.10;99.90
7411;DHT22;3747;48.628;9.058;2023-04-03T05:51:56;2.20;99.90
7411;DHT22;3747;48.628;9.058;2023-04-03T05:54:25;2.20;99.90
7411;DHT22;3747;48.628;9.058;2023-04-03T05:56:52;2.30;99.90
7411;DHT22;3747;48.628;9.058;2023-04-03T05:59:19;2.30;99.90
7411;DHT22;3747;48.628;9.058;2023-04-03T06:01:47;2.30;99.90
7411;DHT22;3747;48.628;9.058;2023-04-03T06:04:14;2.20;99.90
7411;DHT22;3747;48.628;9.058;2023-04-03T06:06:46;2.30;99.90
7411;DHT22;3747;48.628;9.058;2023-04-03T06:09:15;2.30;99.90
7411;DHT22;3747;48.628;9.058;2023-04-03T06:11:42;2.30;99.90
7411;DHT22;3747;48.628;9.058;2023-04-03T06:14:09;2.40;99.90
7411;DHT22;3747;48.628;9.058;2023-04-03T06:16:36;2.40;99.90
7411;DHT22;3747;48.628;9.058;2023-04-03T06:19:04;2.50;99.90
7411;DHT22;3747;48.628;9.058;2023-04-03T06:21:32;2.50;99.90
7411;DHT22;3747;48.628;9.058;2023-04-03T06:24:00;2.60;99.90
7411;DHT22;3747;48.628;9.058;2023-04-03T06:26:27;2.60;99.90
7411;DHT22;3747;48.628;9.058;2023-04-03T06:28:54;2.50;99.90
7411;DHT22;3747;48.628;9.058;2023-04-03T06:31:21;2.50;99.90
7411;DHT22;3747;48.628;9.058;2023-04-03T06:33:48;2.50;99.90
7411;DHT22;3747;48.628;9.058;2023-04-03T06:36:15;2.50;99.90
7411;DHT22;3747;48.628;9.058;2023-04-03T06:38:45;2.60;99.90
7411;DHT22;3747;48.628;9.058;2023-04-03T06:41:13;2.50;99.90
7411;DHT22;3747;48.628;9.058;2023-04-03T06:43:40;2.60;99.90
7411;DHT22;3747;48.628;9.058;2023-04-03T06:46:08;2.60;99.90
7411;DHT22;3747;48.628;9.058;2023-04-03T06:48:37;2.70;99.90
7411;DHT22;3747;48.628;9.058;2023-04-03T06:51:04;2.90;99.90
7411;DHT22;3747;48.628;9.058;2023-04-03T06:53:31;3.10;99.90
7411;DHT22;3747;48.628;9.058;2023-04-03T06:55:57;2.90;99.90
7411;DHT22;3747;48.628;9.058;2023-04-03T06:58:25;3.00;99.90
7411;DHT22;3747;48.628;9.058;2023-04-03T07:00:52;3.10;99.90
7411;DHT22;3747;48.628;9.058;2023-04-03T07:03:19;3.20;99.90
7411;DHT22;3747;48.628;9.058;2023-04-03T07:05:46;3.20;99.90
7411;DHT22;3747;48.628;9.058;2023-04-03T07:08:14;3.30;99.90
7411;DHT22;3747;48.628;9.058;2023-04-03T07:10:40;3.30;99.90
7411;DHT22;3747;48.628;9.058;2023-04-03T07:13:08;3.60;99.90
7411;DHT22;3747;48.628;9.058;2023-04-03T07:15:36;3.70;99.90
7411;DHT22;3747;48.628;9.058;2023-04-03T07:18:03;3.80;99.90
7411;DHT22;3747;48.628;9.058;2023-04-03T07:20:31;4.10;99.90
7411;DHT22;3747;48.628;9.058;2023-04-03T07:22:58;4.30;99.90
7411;DHT22;3747;48.628;9.058;2023-04-03T07:25:25;4.20;99.90
7411;DHT22;3747;48.628;9.058;2023-04-03T07:27:52;4.40;99.90
7411;DHT22;3747;48.628;9.058;2023-04-03T07:30:19;4.30;99.90
7411;DHT22;3747;48.628;9.058;2023-04-03T07:32:48;4.60;99.90
7411;DHT22;3747;48.628;9.058;2023-04-03T07:35:14;4.80;99.90
7411;DHT22;3747;48.628;9.058;2023-04-03T07:37:42;4.40;99.90
7411;DHT22;3747;48.628;9.058;2023-04-03T07:40:10;4.40;99.90
7411;DHT22;3747;48.628;9.058;2023-04-03T07:42:37;4.40;99.90
7411;DHT22;3747;48.628;9.058;2023-04-03T07:45:04;4.10;99.90
7411;DHT22;3747;48.628;9.058;2023-04-03T07:47:31;4.20;99.90
7411;DHT22;3747;48.628;9.058;2023-04-03T07:49:59;4.20;99.90
7411;DHT22;3747;48.628;9.058;2023-04-03T07:52:26;4.50;99.90
7411;DHT22;3747;48.628;9.058;2023-04-03T07:54:52;4.70;99.90
7411;DHT22;3747;48.628;9.058;2023-04-03T07:57:19;4.70;99.90
7411;DHT22;3747;48.628;9.058;2023-04-03T07:59:45;4.70;99.90
7411;DHT22;3747;48.628;9.058;2023-04-03T08:02:12;4.80;99.90
7411;DHT22;3747;48.628;9.058;2023-04-03T08:04:39;5.10;99.90
7411;DHT22;3747;48.628;9.058;2023-04-03T08:07:08;5.40;99.90
7411;DHT22;3747;48.628;9.058;2023-04-03T08:09:35;5.80;99.90
7411;DHT22;3747;48.628;9.058;2023-04-03T08:12:02;6.20;99.90
7411;DHT22;3747;48.628;9.058;2023-04-03T08:14:30;6.40;99.90
7411;DHT22;3747;48.628;9.058;2023-04-03T08:16:59;6.10;99.90
7411;DHT22;3747;48.628;9.058;2023-04-03T08:19:26;5.90;99.90
7411;DHT22;3747;48.628;9.058;2023-04-03T08:21:53;5.90;99.90
7411;DHT22;3747;48.628;9.058;2023-04-03T08:24:22;5.50;99.90
7411;DHT22;3747;48.628;9.058;2023-04-03T08:26:49;5.80;99.90
7411;DHT22;3747;48.628;9.058;2023-04-03T08:29:16;6.00;99.90
7411;DHT22;3747;48.628;9.058;2023-04-03T08:31:42;6.30;99.90
7411;DHT22;3747;48.628;9.058;2023-04-03T08:34:10;6.30;99.90
7411;DHT22;3747;48.628;9.058;2023-04-03T08:36:37;6.20;99.90
7411;DHT22;3747;48.628;9.058;2023-04-03T08:39:04;6.20;99.90
7411;DHT22;3747;48.628;9.058;2023-04-03T08:41:34;5.60;99.90
7411;DHT22;3747;48.628;9.058;2023-04-03T08:44:14;5.10;99.90
7411;DHT22;3747;48.628;9.058;2023-04-03T08:46:52;5.10;99.90
7411;DHT22;3747;48.628;9.058;2023-04-03T08:49:26;5.20;99.90
7411;DHT22;3747;48.628;9.058;2023-04-03T08:51:57;5.00;99.90
7411;DHT22;3747;48.628;9.058;2023-04-03T08:54:30;5.10;99.90
7411;DHT22;3747;48.628;9.058;2023-04-03T08:57:00;5.10;99.90
7411;DHT22;3747;48.628;9.058;2023-04-03T08:59:31;5.10;99.90
7411;DHT22;3747;48.628;9.058;2023-04-03T09:02:01;5.50;99.90
7411;DHT22;3747;48.628;9.058;2023-04-03T09:04:32;5.90;99.90
7411;DHT22;3747;48.628;9.058;2023-04-03T09:07:04;6.40;99.90
7411;DHT22;3747;48.628;9.058;2023-04-03T09:09:36;6.20;99.90
7411;DHT22;3747;48.628;9.058;2023-04-03T09:12:15;5.90;99.90
7411;DHT22;3747;48.628;9.058;2023-04-03T09:14:46;6.10;99.90
7411;DHT22;3747;48.628;9.058;2023-04-03T09:17:29;5.80;99.90
7411;DHT22;3747;48.628;9.058;2023-04-03T09:20:05;5.70;99.90
7411;DHT22;3747;48.628;9.058;2023-04-03T09:22:38;5.50;99.90
7411;DHT22;3747;48.628;9.058;2023-04-03T09:25:12;5.70;99.90
7411;DHT22;3747;48.628;9.058;2023-04-03T09:27:41;5.80;99.90
7411;DHT22;3747;48.628;9.058;2023-04-03T09:30:13;5.90;99.90
7411;DHT22;3747;48.628;9.058;2023-04-03T09:32:41;5.80;99.90
7411;DHT22;3747;48.628;9.058;2023-04-03T09:35:17;6.10;99.90
7411;DHT22;3747;48.628;9.058;2023-04-03T09:37:46;6.20;99.90
7411;DHT22;3747;48.628;9.058;2023-04-03T09:40:35;6.30;99.90
7411;DHT22;3747;48.628;9.058;2023-04-03T09:43:22;6.20;99.90
7411;DHT22;3747;48.628;9.058;2023-04-03T09:45:50;5.90;99.90
7411;DHT22;3747;48.628;9.058;2023-04-03T09:48:19;5.60;99.90
7411;DHT22;3747;48.628;9.058;2023-04-03T09:50:55;5.60;99.90
7411;DHT22;3747;48.628;9.058;2023-04-03T09:53:33;5.70;99.90
7411;DHT22;3747;48.628;9.058;2023-04-03T09:56:02;5.20;99.90
7411;DHT22;3747;48.628;9.058;2023-04-03T09:58:32;5.30;99.90
7411;DHT22;3747;48.628;9.058;2023-04-03T10:01:02;5.30;99.90
7411;DHT22;3747;48.628;9.058;2023-04-03T10:03:31;5.50;99.90
7411;DHT22;3747;48.628;9.058;2023-04-03T10:05:58;5.30;99.90
7411;DHT22;3747;48.628;9.058;2023-04-03T10:08:28;5.60;99.90
7411;DHT22;3747;48.628;9.058;2023-04-03T10:11:07;6.00;99.90
7411;DHT22;3747;48.628;9.058;2023-04-03T10:13:49;6.60;99.90
7411;DHT22;3747;48.628;9.058;2023-04-03T10:16:18;6.40;99.90
7411;DHT22;3747;48.628;9.058;2023-04-03T10:18:49;6.60;99.90
7411;DHT22;3747;48.628;9.058;2023-04-03T10:21:29;6.20;99.90
7411;DHT22;3747;48.628;9.058;2023-04-03T10:24:06;6.20;99.90
7411;DHT22;3747;48.628;9.058;2023-04-03T10:26:41;6.30;99.90
7411;DHT22;3747;48.628;9.058;2023-04-03T10:29:21;6.30;99.90
7411;DHT22;3747;48.628;9.058;2023-04-03T10:32:06;5.90;99.90
7411;DHT22;3747;48.628;9.058;2023-04-03T10:34:39;5.80;99.90
7411;DHT22;3747;48.628;9.058;2023-04-03T10:37:13;5.90;99.90
7411;DHT22;3747;48.628;9.058;2023-04-03T10:39:48;5.90;99.90
7411;DHT22;3747;48.628;9.058;2023-04-03T10:42:22;6.20;99.90
7411;DHT22;3747;48.628;9.058;2023-04-03T10:47:46;6.70;99.90
7411;DHT22;3747;48.628;9.058;2023-04-03T10:50:31;6.70;99.90
7411;DHT22;3747;48.628;9.058;2023-04-03T10:53:07;6.60;99.90
7411;DHT22;3747;48.628;9.058;2023-04-03T10:55:38;6.50;99.90
7411;DHT22;3747;48.628;9.058;2023-04-03T10:58:06;6.50;99.90
7411;DHT22;3747;48.628;9.058;2023-04-03T11:00:40;6.40;99.90
7411;DHT22;3747;48.628;9.058;2023-04-03T11:03:11;6.40;99.90
7411;DHT22;3747;48.628;9.058;2023-04-03T11:05:43;6.50;99.90
7411;DHT22;3747;48.628;9.058;2023-04-03T11:08:17;6.60;99.90
7411;DHT22;3747;48.628;9.058;2023-04-03T11:10:49;6.60;99.90
7411;DHT22;3747;48.628;9.058;2023-04-03T11:13:19;6.60;99.90
7411;DHT22;3747;48.628;9.058;2023-04-03T11:15:51;6.40;99.90
7411;DHT22;3747;48.628;9.058;2023-04-03T11:18:21;6.50;99.90
7411;DHT22;3747;48.628;9.058;2023-04-03T11:20:57;6.70;99.90
7411;DHT22;3747;48.628;9.058;2023-04-03T11:23:26;6.80;99.90
7411;DHT22;3747;48.628;9.058;2023-04-03T11:26:00;6.80;99.90
7411;DHT22;3747;48.628;9.058;2023-04-03T11:28:31;6.60;99.90
7411;DHT22;3747;48.628;9.058;2023-04-03T11:31:06;6.50;99.90
7411;DHT22;3747;48.628;9.058;2023-04-03T11:33:43;6.60;99.90
7411;DHT22;3747;48.628;9.058;2023-04-03T11:36:19;6.70;99.90
7411;DHT22;3747;48.628;9.058;2023-04-03T11:38:49;6.50;99.90
7411;DHT22;3747;48.628;9.058;2023-04-03T11:41:25;6.40;99.90
7411;DHT22;3747;48.628;9.058;2023-04-03T11:43:57;6.20;99.90
7411;DHT22;3747;48.628;9.058;2023-04-03T11:46:50;6.20;99.90
7411;DHT22;3747;48.628;9.058;2023-04-03T11:55:59;6.60;99.90
7411;DHT22;3747;48.628;9.058;2023-04-03T11:58:28;6.50;99.90
7411;DHT22;3747;48.628;9.058;2023-04-03T12:01:01;6.50;99.90
7411;DHT22;3747;48.628;9.058;2023-04-03T12:06:53;6.20;99.90
7411;DHT22;3747;48.628;9.058;2023-04-03T12:09:30;6.20;99.90
7411;DHT22;3747;48.628;9.058;2023-04-03T12:12:00;6.40;99.90
7411;DHT22;3747;48.628;9.058;2023-04-03T12:14:28;7.00;99.90
7411;DHT22;3747;48.628;9.058;2023-04-03T12:16:56;7.20;99.90
7411;DHT22;3747;48.628;9.058;2023-04-03T12:19:34;7.60;99.90
7411;DHT22;3747;48.628;9.058;2023-04-03T12:22:21;7.80;99.90
7411;DHT22;3747;48.628;9.058;2023-04-03T12:24:49;7.70;99.90
7411;DHT22;3747;48.628;9.058;2023-04-03T12:27:29;7.30;99.90
7411;DHT22;3747;48.628;9.058;2023-04-03T12:30:13;6.70;99.90
7411;DHT22;3747;48.628;9.058;2023-04-03T12:32:54;6.50;99.90
7411;DHT22;3747;48.628;9.058;2023-04-03T12:35:27;6.10;99.90
7411;DHT22;3747;48.628;9.058;2023-04-03T12:38:25;6.00;99.90
7411;DHT22;3747;48.628;9.058;2023-04-03T12:41:10;5.90;99.90
7411;DHT22;3747;48.628;9.058;2023-04-03T12:43:50;5.60;99.90
7411;DHT22;3747;48.628;9.058;2023-04-03T12:46:31;5.80;99.90
7411;DHT22;3747;48.628;9.058;2023-04-03T12:48:59;5.60;99.90
7411;DHT22;3747;48.628;9.058;2023-04-03T12:51:31;5.60;99.90
7411;DHT22;3747;48.628;9.058;2023-04-03T12:54:04;5.60;99.90
7411;DHT22;3747;48.628;9.058;2023-04-03T12:56:38;5.70;99.90
7411;DHT22;3747;48.628;9.058;2023-04-03T12:59:16;6.00;99.90
7411;DHT22;3747;48.628;9.058;2023-04-03T13:01:44;6.40;99.90
7411;DHT22;3747;48.628;9.058;2023-04-03T13:04:11;6.80;99.90
7411;DHT22;3747;48.628;9.058;2023-04-03T13:06:40;7.70;99.90
7411;DHT22;3747;48.628;9.058;2023-04-03T13:09:19;8.10;99.90
7411;DHT22;3747;48.628;9.058;2023-04-03T13:11:50;8.00;99.90
7411;DHT22;3747;48.628;9.058;2023-04-03T13:14:19;7.80;99.90
7411;DHT22;3747;48.628;9.058;2023-04-03T13:16:53;7.50;99.90
7411;DHT22;3747;48.628;9.058;2023-04-03T13:19:23;6.90;99.90
7411;DHT22;3747;48.628;9.058;2023-04-03T13:21:54;6.30;99.90
7411;DHT22;3747;48.628;9.058;2023-04-03T13:24:25;5.90;99.90
7411;DHT22;3747;48.628;9.058;2023-04-03T13:26:52;5.60;99.90
7411;DHT22;3747;48.628;9.058;2023-04-03T13:29:23;5.60;99.90
7411;DHT22;3747;48.628;9.058;2023-04-03T13:31:53;5.80;99.90
7411;DHT22;3747;48.628;9.058;2023-04-03T13:34:20;5.80;99.90
7411;DHT22;3747;48.628;9.058;2023-04-03T13:36:56;5.70;99.90
7411;DHT22;3747;48.628;9.058;2023-04-03T13:39:27;6.10;99.90
7411;DHT22;3747;48.628;9.058;2023-04-03T13:42:02;6.40;99.90
7411;DHT22;3747;48.628;9.058;2023-04-03T13:44:40;6.50;99.90
7411;DHT22;3747;48.628;9.058;2023-04-03T13:47:19;6.80;99.90
7411;DHT22;3747;48.628;9.058;2023-04-03T13:49:59;6.80;99.90
7411;DHT22;3747;48.628;9.058;2023-04-03T13:52:29;6.80;99.90
7411;DHT22;3747;48.628;9.058;2023-04-03T13:54:59;6.80;99.90
7411;DHT22;3747;48.628;9.058;2023-04-03T13:57:27;6.90;99.90
7411;DHT22;3747;48.628;9.058;2023-04-03T13:59:54;7.00;99.90
7411;DHT22;3747;48.628;9.058;2023-04-03T14:02:28;6.90;99.90
7411;DHT22;3747;48.628;9.058;2023-04-03T14:04:58;6.90;99.90
7411;DHT22;3747;48.628;9.058;2023-04-03T14:07:27;6.50;99.90
7411;DHT22;3747;48.628;9.058;2023-04-03T14:09:55;6.20;99.90
7411;DHT22;3747;48.628;9.058;2023-04-03T14:12:26;6.00;99.90
7411;DHT22;3747;48.628;9.058;2023-04-03T14:14:53;5.80;99.90
7411;DHT22;3747;48.628;9.058;2023-04-03T14:17:23;5.90;99.90
7411;DHT22;3747;48.628;9.058;2023-04-03T14:19:52;5.70;99.90
7411;DHT22;3747;48.628;9.058;2023-04-03T14:22:21;5.80;99.90
7411;DHT22;3747;48.628;9.058;2023-04-03T14:24:49;6.00;99.90
7411;DHT22;3747;48.628;9.058;2023-04-03T14:27:20;6.20;99.90
7411;DHT22;3747;48.628;9.058;2023-04-03T14:29:50;6.70;99.90
7411;DHT22;3747;48.628;9.058;2023-04-03T14:32:19;6.80;99.90
7411;DHT22;3747;48.628;9.058;2023-04-03T14:34:47;6.80;99.90
7411;DHT22;3747;48.628;9.058;2023-04-03T14:37:17;6.70;99.90
7411;DHT22;3747;48.628;9.058;2023-04-03T14:39:44;6.60;99.90
7411;DHT22;3747;48.628;9.058;2023-04-03T14:42:13;6.80;99.90
7411;DHT22;3747;48.628;9.058;2023-04-03T14:44:41;6.70;99.90
7411;DHT22;3747;48.628;9.058;2023-04-03T14:47:11;6.80;99.90
7411;DHT22;3747;48.628;9.058;2023-04-03T14:49:39;7.10;99.90
7411;DHT22;3747;48.628;9.058;2023-04-03T14:52:06;7.20;99.90
7411;DHT22;3747;48.628;9.058;2023-04-03T14:54:39;7.40;99.90
7411;DHT22;3747;48.628;9.058;2023-04-03T14:57:08;7.20;99.90
7411;DHT22;3747;48.628;9.058;2023-04-03T14:59:38;6.90;99.90
7411;DHT22;3747;48.628;9.058;2023-04-03T15:02:24;6.30;99.90
7411;DHT22;3747;48.628;9.058;2023-04-03T15:04:51;5.90;99.90
7411;DHT22;3747;48.628;9.058;2023-04-03T15:07:17;5.70;99.90
7411;DHT22;3747;48.628;9.058;2023-04-03T15:09:44;5.50;99.90
7411;DHT22;3747;48.628;9.058;2023-04-03T15:12:11;5.60;99.90
7411;DHT22;3747;48.628;9.058;2023-04-03T15:14:39;5.70;99.90
7411;DHT22;3747;48.628;9.058;2023-04-03T15:17:06;6.00;99.90
7411;DHT22;3747;48.628;9.058;2023-04-03T15:19:37;6.30;99.90
7411;DHT22;3747;48.628;9.058;2023-04-03T15:22:04;6.60;99.90
7411;DHT22;3747;48.628;9.058;2023-04-03T15:24:31;7.60;99.90
7411;DHT22;3747;48.628;9.058;2023-04-03T15:26:59;9.50;99.90
7411;DHT22;3747;48.628;9.058;2023-04-03T15:29:27;10.40;99.70
7411;DHT22;3747;48.628;9.058;2023-04-03T15:31:53;11.00;99.90
7411;DHT22;3747;48.628;9.058;2023-04-03T15:34:20;10.70;97.50
7411;DHT22;3747;48.628;9.058;2023-04-03T15:36:49;9.80;99.90
7411;DHT22;3747;48.628;9.058;2023-04-03T15:39:17;8.30;99.90
7411;DHT22;3747;48.628;9.058;2023-04-03T15:41:44;7.00;99.90
7411;DHT22;3747;48.628;9.058;2023-04-03T15:44:11;6.30;99.90
7411;DHT22;3747;48.628;9.058;2023-04-03T15:46:39;6.10;99.90
7411;DHT22;3747;48.628;9.058;2023-04-03T15:49:06;6.10;99.90
7411;DHT22;3747;48.628;9.058;2023-04-03T15:51:33;6.10;99.90
7411;DHT22;3747;48.628;9.058;2023-04-03T15:54:01;6.10;99.90
7411;DHT22;3747;48.628;9.058;2023-04-03T15:56:28;6.20;99.90
7411;DHT22;3747;48.628;9.058;2023-04-03T15:58:55;5.90;99.90
7411;DHT22;3747;48.628;9.058;2023-04-03T16:01:21;5.80;99.90
7411;DHT22;3747;48.628;9.058;2023-04-03T16:03:48;5.70;99.90
7411;DHT22;3747;48.628;9.058;2023-04-03T16:06:17;5.60;99.90
7411;DHT22;3747;48.628;9.058;2023-04-03T16:08:44;5.60;99.90
7411;DHT22;3747;48.628;9.058;2023-04-03T16:11:14;5.60;99.90
7411;DHT22;3747;48.628;9.058;2023-04-03T16:13:40;5.50;99.90
7411;DHT22;3747;48.628;9.058;2023-04-03T16:16:08;5.50;99.90
7411;DHT22;3747;48.628;9.058;2023-04-03T16:18:35;5.60;99.90
7411;DHT22;3747;48.628;9.058;2023-04-03T16:21:02;5.50;99.90
7411;DHT22;3747;48.628;9.058;2023-04-03T16:23:29;5.50;99.90
7411;DHT22;3747;48.628;9.058;2023-04-03T16:25:55;5.40;99.90
7411;DHT22;3747;48.628;9.058;2023-04-03T16:28:23;5.40;99.90
7411;DHT22;3747;48.628;9.058;2023-04-03T16:30:50;5.50;99.90
7411;DHT22;3747;48.628;9.058;2023-04-03T16:33:17;5.50;99.90
7411;DHT22;3747;48.628;9.058;2023-04-03T16:35:47;5.60;99.90
7411;DHT22;3747;48.628;9.058;2023-04-03T16:38:14;6.30;99.90
7411;DHT22;3747;48.628;9.058;2023-04-03T16:40:41;7.20;99.90
7411;DHT22;3747;48.628;9.058;2023-04-03T16:43:08;7.10;99.90